sensor_id;sensor_type;location;lat;lon;timestamp;P1;durP1;ratioP1;P2;durP2;ratioP2
5465;SDS011;2755;50.728;7.108;2023-02-14T00:01:50;13.97;;;8.13;;
5465;SDS011;2755;50.728;7.108;2023-02-14T00:04:16;17.03;;;8.90;;
5465;SDS011;2755;50.728;7.108;2023-02-14T00:06:43;11.80;;;7.80;;
5465;SDS011;2755;50.728;7.108;2023-02-14T00:09:13;11.10;;;7.23;;
5465;SDS011;2755;50.728;7.108;2023-02-14T00:11:40;11.20;;;6.60;;
5465;SDS011;2755;50.728;7.108;2023-02-14T00:14:07;11.53;;;6.67;;
5465;SDS011;2755;50.728;7.108;2023-02-14T00:16:52;12.03;;;7.03;;
5465;SDS011;2755;50.728;7.108;2023-02-14T00:19:19;12.13;;;7.50;;
5465;SDS011;2755;50.728;7.108;2023-02-14T00:21:45;14.70;;;6.97;;
5465;SDS011;2755;50.728;7.108;2023-02-14T00:24:16;13.53;;;8.07;;
5465;SDS011;2755;50.728;7.108;2023-02-14T00:26:43;12.97;;;7.67;;
5465;SDS011;2755;50.728;7.108;2023-02-14T00:29:13;20.03;;;10.37;;
5465;SDS011;2755;50.728;7.108;2023-02-14T00:31:41;16.17;;;10.03;;
5465;SDS011;2755;50.728;7.108;2023-02-14T00:34:07;15.40;;;9.07;;
5465;SDS011;2755;50.728;7.108;2023-02-14T00:36:33;18.23;;;10.13;;
5465;SDS011;2755;50.728;7.108;2023-02-14T00:39:07;18.87;;;9.37;;
5465;SDS011;2755;50.728;7.108;2023-02-14T00:41:34;17.10;;;8.17;;
5465;SDS011;2755;50.728;7.108;2023-02-14T00:44:00;15.93;;;9.13;;
5465;SDS011;2755;50.728;7.108;2023-02-14T00:46:26;15.60;;;9.67;;
5465;SDS011;2755;50.728;7.108;2023-02-14T00:48:53;14.80;;;9.33;;
5465;SDS011;2755;50.728;7.108;2023-02-14T00:51:19;15.90;;;9.73;;
5465;SDS011;2755;50.728;7.108;2023-02-14T00:53:45;14.17;;;9.03;;
5465;SDS011;2755;50.728;7.108;2023-02-14T00:56:12;19.00;;;10.10;;
5465;SDS011;2755;50.728;7.108;2023-02-14T00:58:38;16.40;;;9.17;;
5465;SDS011;2755;50.728;7.108;2023-02-14T01:01:04;17.47;;;10.20;;
5465;SDS011;2755;50.728;7.108;2023-02-14T01:03:30;16.67;;;10.00;;
5465;SDS011;2755;50.728;7.108;2023-02-14T01:05:56;14.03;;;9.27;;
5465;SDS011;2755;50.728;7.108;2023-02-14T01:08:22;17.17;;;10.30;;
5465;SDS011;2755;50.728;7.108;2023-02-14T01:10:49;16.10;;;10.50;;
5465;SDS011;2755;50.728;7.108;2023-02-14T01:13:15;16.50;;;10.00;;
5465;SDS011;2755;50.728;7.108;2023-02-14T01:15:43;18.80;;;9.73;;
5465;SDS011;2755;50.728;7.108;2023-02-14T01:18:14;14.67;;;9.53;;
5465;SDS011;2755;50.728;7.108;2023-02-14T01:20:40;20.70;;;10.43;;
5465;SDS011;2755;50.728;7.108;2023-02-14T01:23:06;18.63;;;11.30;;
5465;SDS011;2755;50.728;7.108;2023-02-14T01:25:32;25.23;;;11.27;;
5465;SDS011;2755;50.728;7.108;2023-02-14T01:27:58;19.87;;;10.20;;
5465;SDS011;2755;50.728;7.108;2023-02-14T01:30:24;21.67;;;11.33;;
5465;SDS011;2755;50.728;7.108;2023-02-14T01:32:50;20.67;;;10.57;;
5465;SDS011;2755;50.728;7.108;2023-02-14T01:35:16;21.87;;;11.57;;
5465;SDS011;2755;50.728;7.108;2023-02-14T01:37:42;22.87;;;11.03;;
5465;SDS011;2755;50.728;7.108;2023-02-14T01:40:09;23.13;;;10.83;;
5465;SDS011;2755;50.728;7.108;2023-02-14T01:42:36;25.30;;;10.20;;
5465;SDS011;2755;50.728;7.108;2023-02-14T01:45:14;18.37;;;10.90;;
5465;SDS011;2755;50.728;7.108;2023-02-14T01:47:43;21.70;;;12.23;;
5465;SDS011;2755;50.728;7.108;2023-02-14T01:50:13;18.80;;;11.57;;
5465;SDS011;2755;50.728;7.108;2023-02-14T01:52:48;29.03;;;13.77;;
5465;SDS011;2755;50.728;7.108;2023-02-14T01:55:20;16.70;;;10.70;;
5465;SDS011;2755;50.728;7.108;2023-02-14T01:57:50;19.60;;;10.53;;
5465;SDS011;2755;50.728;7.108;2023-02-14T02:00:20;23.97;;;10.77;;
5465;SDS011;2755;50.728;7.108;2023-02-14T02:03:04;19.00;;;10.23;;
5465;SDS011;2755;50.728;7.108;2023-02-14T02:05:31;18.73;;;10.27;;
5465;SDS011;2755;50.728;7.108;2023-02-14T02:07:58;16.40;;;10.53;;
5465;SDS011;2755;50.728;7.108;2023-02-14T02:10:25;21.37;;;11.83;;
5465;SDS011;2755;50.728;7.108;2023-02-14T02:12:51;20.93;;;11.20;;
5465;SDS011;2755;50.728;7.108;2023-02-14T02:15:17;20.50;;;11.13;;
5465;SDS011;2755;50.728;7.108;2023-02-14T02:40:05;24.03;;;11.90;;
5465;SDS011;2755;50.728;7.108;2023-02-14T02:45:37;20.40;;;11.60;;
5465;SDS011;2755;50.728;7.108;2023-02-14T02:48:26;21.10;;;11.03;;
5465;SDS011;2755;50.728;7.108;2023-02-14T02:51:00;22.10;;;10.63;;
5465;SDS011;2755;50.728;7.108;2023-02-14T02:54:01;21.20;;;11.03;;
5465;SDS011;2755;50.728;7.108;2023-02-14T02:56:42;23.77;;;12.10;;
5465;SDS011;2755;50.728;7.108;2023-02-14T02:59:19;21.53;;;9.80;;
5465;SDS011;2755;50.728;7.108;2023-02-14T03:01:54;23.43;;;10.90;;
5465;SDS011;2755;50.728;7.108;2023-02-14T03:04:30;18.37;;;8.80;;
5465;SDS011;2755;50.728;7.108;2023-02-14T03:07:16;17.80;;;9.87;;
5465;SDS011;2755;50.728;7.108;2023-02-14T03:18:02;18.43;;;10.43;;
5465;SDS011;2755;50.728;7.108;2023-02-14T03:24:01;23.37;;;12.40;;
5465;SDS011;2755;50.728;7.108;2023-02-14T03:29:56;25.83;;;12.70;;
5465;SDS011;2755;50.728;7.108;2023-02-14T03:37:56;24.33;;;13.23;;
5465;SDS011;2755;50.728;7.108;2023-02-14T03:40:31;23.07;;;12.70;;
5465;SDS011;2755;50.728;7.108;2023-02-14T03:43:07;23.00;;;13.63;;
5465;SDS011;2755;50.728;7.108;2023-02-14T03:45:41;23.90;;;12.03;;
5465;SDS011;2755;50.728;7.108;2023-02-14T03:48:15;24.83;;;13.17;;
5465;SDS011;2755;50.728;7.108;2023-02-14T03:50:44;24.77;;;13.47;;
5465;SDS011;2755;50.728;7.108;2023-02-14T03:53:11;29.00;;;12.97;;
5465;SDS011;2755;50.728;7.108;2023-02-14T03:55:54;26.70;;;13.80;;
5465;SDS011;2755;50.728;7.108;2023-02-14T03:58:39;30.33;;;13.93;;
5465;SDS011;2755;50.728;7.108;2023-02-14T04:01:21;25.60;;;14.00;;
5465;SDS011;2755;50.728;7.108;2023-02-14T04:03:49;23.57;;;13.87;;
5465;SDS011;2755;50.728;7.108;2023-02-14T04:06:18;29.13;;;14.57;;
5465;SDS011;2755;50.728;7.108;2023-02-14T04:08:44;35.20;;;14.33;;
5465;SDS011;2755;50.728;7.108;2023-02-14T04:11:10;32.93;;;15.07;;
5465;SDS011;2755;50.728;7.108;2023-02-14T04:13:36;36.23;;;16.90;;
5465;SDS011;2755;50.728;7.108;2023-02-14T04:16:03;36.27;;;15.40;;
5465;SDS011;2755;50.728;7.108;2023-02-14T04:18:29;30.50;;;15.53;;
5465;SDS011;2755;50.728;7.108;2023-02-14T04:21:13;27.87;;;14.10;;
5465;SDS011;2755;50.728;7.108;2023-02-14T04:23:39;33.80;;;18.13;;
5465;SDS011;2755;50.728;7.108;2023-02-14T04:26:05;32.47;;;18.07;;
5465;SDS011;2755;50.728;7.108;2023-02-14T04:28:31;32.77;;;17.80;;
5465;SDS011;2755;50.728;7.108;2023-02-14T04:31:01;32.37;;;15.77;;
5465;SDS011;2755;50.728;7.108;2023-02-14T04:33:27;30.63;;;15.90;;
5465;SDS011;2755;50.728;7.108;2023-02-14T04:35:53;34.83;;;16.33;;
5465;SDS011;2755;50.728;7.108;2023-02-14T04:38:19;32.53;;;17.17;;
5465;SDS011;2755;50.728;7.108;2023-02-14T04:40:47;28.47;;;14.83;;
5465;SDS011;2755;50.728;7.108;2023-02-14T04:43:13;25.20;;;14.87;;
5465;SDS011;2755;50.728;7.108;2023-02-14T04:45:39;31.77;;;15.87;;
5465;SDS011;2755;50.728;7.108;2023-02-14T04:48:05;43.57;;;16.73;;
5465;SDS011;2755;50.728;7.108;2023-02-14T04:50:31;33.03;;;16.50;;
5465;SDS011;2755;50.728;7.108;2023-02-14T04:52:57;30.90;;;16.53;;
5465;SDS011;2755;50.728;7.108;2023-02-14T04:55:23;30.87;;;15.20;;
5465;SDS011;2755;50.728;7.108;2023-02-14T04:57:49;37.47;;;17.60;;
5465;SDS011;2755;50.728;7.108;2023-02-14T05:00:15;44.63;;;18.60;;
5465;SDS011;2755;50.728;7.108;2023-02-14T05:02:41;33.00;;;17.20;;
5465;SDS011;2755;50.728;7.108;2023-02-14T05:05:07;38.13;;;19.10;;
5465;SDS011;2755;50.728;7.108;2023-02-14T05:07:33;37.13;;;17.37;;
5465;SDS011;2755;50.728;7.108;2023-02-14T05:09:59;40.20;;;18.90;;
5465;SDS011;2755;50.728;7.108;2023-02-14T05:12:25;36.67;;;17.67;;
5465;SDS011;2755;50.728;7.108;2023-02-14T05:14:51;34.23;;;17.77;;
5465;SDS011;2755;50.728;7.108;2023-02-14T05:17:17;42.77;;;18.57;;
5465;SDS011;2755;50.728;7.108;2023-02-14T05:19:43;38.23;;;17.23;;
5465;SDS011;2755;50.728;7.108;2023-02-14T05:22:09;34.80;;;17.40;;
5465;SDS011;2755;50.728;7.108;2023-02-14T05:24:35;38.47;;;18.20;;
5465;SDS011;2755;50.728;7.108;2023-02-14T05:27:01;36.17;;;18.43;;
5465;SDS011;2755;50.728;7.108;2023-02-14T05:29:27;32.37;;;16.90;;
5465;SDS011;2755;50.728;7.108;2023-02-14T05:31:53;46.70;;;20.03;;
5465;SDS011;2755;50.728;7.108;2023-02-14T05:34:19;41.50;;;18.73;;
5465;SDS011;2755;50.728;7.108;2023-02-14T05:36:45;33.87;;;17.80;;
5465;SDS011;2755;50.728;7.108;2023-02-14T05:39:11;44.77;;;20.40;;
5465;SDS011;2755;50.728;7.108;2023-02-14T05:41:38;37.77;;;18.20;;
5465;SDS011;2755;50.728;7.108;2023-02-14T05:44:05;47.23;;;21.60;;
5465;SDS011;2755;50.728;7.108;2023-02-14T05:46:31;44.47;;;20.93;;
5465;SDS011;2755;50.728;7.108;2023-02-14T05:48:57;46.87;;;21.47;;
5465;SDS011;2755;50.728;7.108;2023-02-14T05:51:23;41.90;;;20.37;;
5465;SDS011;2755;50.728;7.108;2023-02-14T05:53:49;40.00;;;20.80;;
5465;SDS011;2755;50.728;7.108;2023-02-14T05:56:15;35.87;;;19.20;;
5465;SDS011;2755;50.728;7.108;2023-02-14T05:58:41;35.33;;;16.97;;
5465;SDS011;2755;50.728;7.108;2023-02-14T06:01:07;39.30;;;19.30;;
5465;SDS011;2755;50.728;7.108;2023-02-14T06:03:33;35.07;;;18.20;;
5465;SDS011;2755;50.728;7.108;2023-02-14T06:05:59;36.30;;;18.90;;
5465;SDS011;2755;50.728;7.108;2023-02-14T06:08:25;37.07;;;18.10;;
5465;SDS011;2755;50.728;7.108;2023-02-14T06:10:51;41.83;;;18.00;;
5465;SDS011;2755;50.728;7.108;2023-02-14T06:13:17;37.27;;;19.13;;
5465;SDS011;2755;50.728;7.108;2023-02-14T06:15:43;42.07;;;19.30;;
5465;SDS011;2755;50.728;7.108;2023-02-14T06:18:09;40.50;;;18.03;;
5465;SDS011;2755;50.728;7.108;2023-02-14T06:20:35;44.90;;;19.23;;
5465;SDS011;2755;50.728;7.108;2023-02-14T06:23:01;38.70;;;18.07;;
5465;SDS011;2755;50.728;7.108;2023-02-14T06:25:27;38.63;;;20.47;;
5465;SDS011;2755;50.728;7.108;2023-02-14T06:27:56;37.97;;;19.37;;
5465;SDS011;2755;50.728;7.108;2023-02-14T06:30:22;36.40;;;19.90;;
5465;SDS011;2755;50.728;7.108;2023-02-14T06:32:48;41.63;;;20.80;;
5465;SDS011;2755;50.728;7.108;2023-02-14T06:35:15;44.27;;;19.70;;
5465;SDS011;2755;50.728;7.108;2023-02-14T06:37:41;36.50;;;17.73;;
5465;SDS011;2755;50.728;7.108;2023-02-14T06:40:09;35.40;;;17.03;;
5465;SDS011;2755;50.728;7.108;2023-02-14T06:42:35;37.50;;;17.00;;
5465;SDS011;2755;50.728;7.108;2023-02-14T06:45:01;40.40;;;18.43;;
5465;SDS011;2755;50.728;7.108;2023-02-14T06:47:28;34.27;;;17.50;;
5465;SDS011;2755;50.728;7.108;2023-02-14T06:49:53;31.00;;;16.10;;
5465;SDS011;2755;50.728;7.108;2023-02-14T06:52:19;33.10;;;16.77;;
5465;SDS011;2755;50.728;7.108;2023-02-14T06:54:45;33.50;;;17.80;;
5465;SDS011;2755;50.728;7.108;2023-02-14T06:57:12;44.07;;;17.27;;
5465;SDS011;2755;50.728;7.108;2023-02-14T06:59:37;31.17;;;16.70;;
5465;SDS011;2755;50.728;7.108;2023-02-14T07:02:03;38.03;;;19.00;;
5465;SDS011;2755;50.728;7.108;2023-02-14T07:04:29;34.43;;;17.40;;
5465;SDS011;2755;50.728;7.108;2023-02-14T07:06:56;40.70;;;18.73;;
5465;SDS011;2755;50.728;7.108;2023-02-14T07:09:22;40.63;;;19.53;;
5465;SDS011;2755;50.728;7.108;2023-02-14T07:11:48;45.47;;;20.23;;
5465;SDS011;2755;50.728;7.108;2023-02-14T07:14:14;42.50;;;21.70;;
5465;SDS011;2755;50.728;7.108;2023-02-14T07:16:40;40.80;;;20.87;;
5465;SDS011;2755;50.728;7.108;2023-02-14T07:19:06;43.63;;;21.17;;
5465;SDS011;2755;50.728;7.108;2023-02-14T07:21:32;43.00;;;19.90;;
5465;SDS011;2755;50.728;7.108;2023-02-14T07:23:58;38.10;;;19.60;;
5465;SDS011;2755;50.728;7.108;2023-02-14T07:26:23;39.00;;;18.53;;
5465;SDS011;2755;50.728;7.108;2023-02-14T07:28:49;32.73;;;18.27;;
5465;SDS011;2755;50.728;7.108;2023-02-14T07:31:16;39.67;;;18.47;;
5465;SDS011;2755;50.728;7.108;2023-02-14T07:33:42;36.23;;;19.03;;
5465;SDS011;2755;50.728;7.108;2023-02-14T07:36:08;35.60;;;17.10;;
5465;SDS011;2755;50.728;7.108;2023-02-14T07:38:35;35.30;;;18.50;;
5465;SDS011;2755;50.728;7.108;2023-02-14T07:41:01;38.50;;;19.27;;
5465;SDS011;2755;50.728;7.108;2023-02-14T07:43:27;43.27;;;18.43;;
5465;SDS011;2755;50.728;7.108;2023-02-14T07:45:53;34.07;;;18.17;;
5465;SDS011;2755;50.728;7.108;2023-02-14T07:48:18;39.73;;;18.40;;
5465;SDS011;2755;50.728;7.108;2023-02-14T07:50:44;33.17;;;18.37;;
5465;SDS011;2755;50.728;7.108;2023-02-14T07:53:10;33.97;;;16.63;;
5465;SDS011;2755;50.728;7.108;2023-02-14T07:55:36;34.90;;;19.20;;
5465;SDS011;2755;50.728;7.108;2023-02-14T07:58:04;38.00;;;18.83;;
5465;SDS011;2755;50.728;7.108;2023-02-14T08:00:30;38.80;;;20.10;;
5465;SDS011;2755;50.728;7.108;2023-02-14T08:02:56;37.00;;;19.30;;
5465;SDS011;2755;50.728;7.108;2023-02-14T08:05:22;34.50;;;18.97;;
5465;SDS011;2755;50.728;7.108;2023-02-14T08:07:48;33.13;;;17.70;;
5465;SDS011;2755;50.728;7.108;2023-02-14T08:10:14;36.17;;;18.87;;
5465;SDS011;2755;50.728;7.108;2023-02-14T08:12:40;35.80;;;18.83;;
5465;SDS011;2755;50.728;7.108;2023-02-14T08:15:25;30.70;;;16.83;;
5465;SDS011;2755;50.728;7.108;2023-02-14T08:18:12;33.03;;;16.77;;
5465;SDS011;2755;50.728;7.108;2023-02-14T08:20:38;32.50;;;16.03;;
5465;SDS011;2755;50.728;7.108;2023-02-14T08:23:04;36.83;;;16.57;;
5465;SDS011;2755;50.728;7.108;2023-02-14T08:25:30;31.77;;;15.40;;
5465;SDS011;2755;50.728;7.108;2023-02-14T08:27:56;31.97;;;16.60;;
5465;SDS011;2755;50.728;7.108;2023-02-14T08:30:22;31.97;;;16.10;;
5465;SDS011;2755;50.728;7.108;2023-02-14T08:32:48;30.63;;;16.67;;
5465;SDS011;2755;50.728;7.108;2023-02-14T08:35:14;26.10;;;15.20;;
5465;SDS011;2755;50.728;7.108;2023-02-14T08:37:40;31.87;;;15.70;;
5465;SDS011;2755;50.728;7.108;2023-02-14T08:40:06;26.03;;;14.43;;
5465;SDS011;2755;50.728;7.108;2023-02-14T08:42:32;29.20;;;16.87;;
5465;SDS011;2755;50.728;7.108;2023-02-14T08:44:58;30.37;;;15.53;;
5465;SDS011;2755;50.728;7.108;2023-02-14T08:47:24;26.87;;;14.80;;
5465;SDS011;2755;50.728;7.108;2023-02-14T08:49:50;22.63;;;13.13;;
5465;SDS011;2755;50.728;7.108;2023-02-14T08:52:16;30.70;;;15.63;;
5465;SDS011;2755;50.728;7.108;2023-02-14T08:54:42;24.13;;;13.93;;
5465;SDS011;2755;50.728;7.108;2023-02-14T08:57:08;25.73;;;15.10;;
5465;SDS011;2755;50.728;7.108;2023-02-14T08:59:34;26.10;;;14.77;;
5465;SDS011;2755;50.728;7.108;2023-02-14T09:02:00;22.50;;;12.67;;
5465;SDS011;2755;50.728;7.108;2023-02-14T09:04:25;26.10;;;14.20;;
5465;SDS011;2755;50.728;7.108;2023-02-14T09:06:51;27.30;;;14.00;;
5465;SDS011;2755;50.728;7.108;2023-02-14T09:09:17;26.40;;;13.67;;
5465;SDS011;2755;50.728;7.108;2023-02-14T09:11:43;28.27;;;13.57;;
5465;SDS011;2755;50.728;7.108;2023-02-14T09:14:09;25.57;;;14.07;;
5465;SDS011;2755;50.728;7.108;2023-02-14T09:16:35;24.07;;;13.83;;
5465;SDS011;2755;50.728;7.108;2023-02-14T09:19:01;23.90;;;13.43;;
5465;SDS011;2755;50.728;7.108;2023-02-14T09:21:27;24.37;;;13.60;;
5465;SDS011;2755;50.728;7.108;2023-02-14T09:23:53;25.00;;;13.90;;
5465;SDS011;2755;50.728;7.108;2023-02-14T09:26:19;23.57;;;12.97;;
5465;SDS011;2755;50.728;7.108;2023-02-14T09:28:45;20.77;;;12.53;;
5465;SDS011;2755;50.728;7.108;2023-02-14T09:31:16;24.00;;;12.80;;
5465;SDS011;2755;50.728;7.108;2023-02-14T09:33:43;20.23;;;11.93;;
5465;SDS011;2755;50.728;7.108;2023-02-14T09:36:09;22.33;;;13.20;;
5465;SDS011;2755;50.728;7.108;2023-02-14T09:38:35;20.93;;;13.23;;
5465;SDS011;2755;50.728;7.108;2023-02-14T09:41:04;26.30;;;14.63;;
5465;SDS011;2755;50.728;7.108;2023-02-14T09:46:24;22.93;;;14.20;;
5465;SDS011;2755;50.728;7.108;2023-02-14T09:48:52;28.20;;;15.20;;
5465;SDS011;2755;50.728;7.108;2023-02-14T09:51:20;22.27;;;12.97;;
5465;SDS011;2755;50.728;7.108;2023-02-14T09:53:50;25.07;;;14.10;;
5465;SDS011;2755;50.728;7.108;2023-02-14T09:56:28;23.67;;;13.93;;
5465;SDS011;2755;50.728;7.108;2023-02-14T10:01:50;28.90;;;14.73;;
5465;SDS011;2755;50.728;7.108;2023-02-14T10:04:27;26.10;;;14.43;;
5465;SDS011;2755;50.728;7.108;2023-02-14T10:10:12;27.00;;;14.37;;
5465;SDS011;2755;50.728;7.108;2023-02-14T10:15:52;26.67;;;14.53;;
5465;SDS011;2755;50.728;7.108;2023-02-14T10:20:51;21.70;;;13.47;;
5465;SDS011;2755;50.728;7.108;2023-02-14T10:23:28;22.40;;;13.80;;
5465;SDS011;2755;50.728;7.108;2023-02-14T10:25:56;21.80;;;12.60;;
5465;SDS011;2755;50.728;7.108;2023-02-14T10:28:41;27.73;;;12.97;;
5465;SDS011;2755;50.728;7.108;2023-02-14T10:33:53;24.97;;;13.10;;
5465;SDS011;2755;50.728;7.108;2023-02-14T10:43:02;20.20;;;12.10;;
5465;SDS011;2755;50.728;7.108;2023-02-14T10:47:50;21.63;;;12.33;;
5465;SDS011;2755;50.728;7.108;2023-02-14T10:56:10;23.20;;;14.63;;
5465;SDS011;2755;50.728;7.108;2023-02-14T11:01:50;22.80;;;13.77;;
5465;SDS011;2755;50.728;7.108;2023-02-14T11:04:18;23.63;;;13.57;;
5465;SDS011;2755;50.728;7.108;2023-02-14T11:06:44;18.53;;;12.23;;
5465;SDS011;2755;50.728;7.108;2023-02-14T11:09:14;21.03;;;13.00;;
5465;SDS011;2755;50.728;7.108;2023-02-14T11:11:53;22.27;;;13.77;;
5465;SDS011;2755;50.728;7.108;2023-02-14T11:16:54;20.90;;;12.73;;
5465;SDS011;2755;50.728;7.108;2023-02-14T11:19:22;21.13;;;13.13;;
5465;SDS011;2755;50.728;7.108;2023-02-14T11:21:53;21.47;;;12.60;;
5465;SDS011;2755;50.728;7.108;2023-02-14T11:32:08;21.50;;;13.03;;
5465;SDS011;2755;50.728;7.108;2023-02-14T11:34:36;23.87;;;12.37;;
5465;SDS011;2755;50.728;7.108;2023-02-14T11:37:14;20.87;;;11.60;;
5465;SDS011;2755;50.728;7.108;2023-02-14T11:39:52;18.33;;;12.30;;
5465;SDS011;2755;50.728;7.108;2023-02-14T11:44:56;23.43;;;12.70;;
5465;SDS011;2755;50.728;7.108;2023-02-14T11:47:27;20.73;;;12.30;;
5465;SDS011;2755;50.728;7.108;2023-02-14T11:52:21;19.87;;;12.07;;
5465;SDS011;2755;50.728;7.108;2023-02-14T11:54:50;20.87;;;12.17;;
5465;SDS011;2755;50.728;7.108;2023-02-14T11:57:24;21.00;;;12.00;;
5465;SDS011;2755;50.728;7.108;2023-02-14T11:59:59;22.27;;;12.77;;
5465;SDS011;2755;50.728;7.108;2023-02-14T12:02:37;20.40;;;12.17;;
5465;SDS011;2755;50.728;7.108;2023-02-14T12:05:27;23.40;;;12.33;;
5465;SDS011;2755;50.728;7.108;2023-02-14T12:08:08;23.17;;;13.50;;
5465;SDS011;2755;50.728;7.108;2023-02-14T12:10:35;24.20;;;13.30;;
5465;SDS011;2755;50.728;7.108;2023-02-14T12:15:36;25.80;;;13.93;;
5465;SDS011;2755;50.728;7.108;2023-02-14T12:23:58;30.70;;;12.90;;
5465;SDS011;2755;50.728;7.108;2023-02-14T12:31:50;22.97;;;12.50;;
5465;SDS011;2755;50.728;7.108;2023-02-14T12:34:17;25.30;;;14.10;;
5465;SDS011;2755;50.728;7.108;2023-02-14T12:36:56;21.60;;;13.20;;
5465;SDS011;2755;50.728;7.108;2023-02-14T12:39:52;20.60;;;12.90;;
5465;SDS011;2755;50.728;7.108;2023-02-14T12:42:56;25.30;;;12.80;;
5465;SDS011;2755;50.728;7.108;2023-02-14T12:51:22;20.27;;;11.63;;
5465;SDS011;2755;50.728;7.108;2023-02-14T12:53:57;20.03;;;11.87;;
5465;SDS011;2755;50.728;7.108;2023-02-14T12:59:23;24.53;;;11.37;;
5465;SDS011;2755;50.728;7.108;2023-02-14T13:04:56;21.30;;;12.67;;
5465;SDS011;2755;50.728;7.108;2023-02-14T13:16:46;17.50;;;10.77;;
5465;SDS011;2755;50.728;7.108;2023-02-14T13:19:19;18.20;;;10.73;;
5465;SDS011;2755;50.728;7.108;2023-02-14T13:21:57;21.27;;;11.90;;
5465;SDS011;2755;50.728;7.108;2023-02-14T13:24:26;24.10;;;12.50;;
5465;SDS011;2755;50.728;7.108;2023-02-14T13:26:59;20.67;;;12.80;;
5465;SDS011;2755;50.728;7.108;2023-02-14T13:29:44;19.73;;;11.27;;
5465;SDS011;2755;50.728;7.108;2023-02-14T13:32:13;24.83;;;11.83;;
5465;SDS011;2755;50.728;7.108;2023-02-14T13:34:43;18.80;;;11.37;;
5465;SDS011;2755;50.728;7.108;2023-02-14T13:37:11;20.93;;;11.47;;
5465;SDS011;2755;50.728;7.108;2023-02-14T13:40:03;20.03;;;11.13;;
5465;SDS011;2755;50.728;7.108;2023-02-14T13:48:05;17.40;;;10.80;;
5465;SDS011;2755;50.728;7.108;2023-02-14T13:50:49;17.00;;;11.00;;
5465;SDS011;2755;50.728;7.108;2023-02-14T13:53:42;19.10;;;11.87;;
5465;SDS011;2755;50.728;7.108;2023-02-14T13:58:56;19.10;;;11.77;;
5465;SDS011;2755;50.728;7.108;2023-02-14T14:03:57;17.90;;;10.40;;
5465;SDS011;2755;50.728;7.108;2023-02-14T14:06:28;22.10;;;11.37;;
5465;SDS011;2755;50.728;7.108;2023-02-14T14:08:55;16.13;;;10.60;;
5465;SDS011;2755;50.728;7.108;2023-02-14T14:16:25;16.90;;;10.73;;
5465;SDS011;2755;50.728;7.108;2023-02-14T14:21:28;20.67;;;11.03;;
5465;SDS011;2755;50.728;7.108;2023-02-14T14:27:00;19.13;;;11.03;;
5465;SDS011;2755;50.728;7.108;2023-02-14T14:29:33;20.17;;;11.03;;
5465;SDS011;2755;50.728;7.108;2023-02-14T14:32:06;18.73;;;10.10;;
5465;SDS011;2755;50.728;7.108;2023-02-14T14:34:33;16.60;;;11.23;;
5465;SDS011;2755;50.728;7.108;2023-02-14T14:37:03;18.17;;;10.93;;
5465;SDS011;2755;50.728;7.108;2023-02-14T14:39:31;19.80;;;9.70;;
5465;SDS011;2755;50.728;7.108;2023-02-14T14:42:05;19.23;;;10.30;;
5465;SDS011;2755;50.728;7.108;2023-02-14T14:44:43;20.10;;;10.43;;
5465;SDS011;2755;50.728;7.108;2023-02-14T14:47:14;16.97;;;10.20;;
5465;SDS011;2755;50.728;7.108;2023-02-14T14:49:43;17.20;;;10.20;;
5465;SDS011;2755;50.728;7.108;2023-02-14T14:52:16;16.60;;;9.93;;
5465;SDS011;2755;50.728;7.108;2023-02-14T14:54:58;15.83;;;9.40;;
5465;SDS011;2755;50.728;7.108;2023-02-14T14:57:26;16.57;;;9.77;;
5465;SDS011;2755;50.728;7.108;2023-02-14T15:02:57;18.53;;;10.53;;
5465;SDS011;2755;50.728;7.108;2023-02-14T15:05:48;18.70;;;9.47;;
5465;SDS011;2755;50.728;7.108;2023-02-14T15:10:41;20.67;;;11.73;;
5465;SDS011;2755;50.728;7.108;2023-02-14T15:13:11;17.30;;;9.90;;
5465;SDS011;2755;50.728;7.108;2023-02-14T15:15:57;17.07;;;9.93;;
5465;SDS011;2755;50.728;7.108;2023-02-14T15:18:23;18.30;;;10.30;;
5465;SDS011;2755;50.728;7.108;2023-02-14T15:20:49;17.20;;;9.50;;
5465;SDS011;2755;50.728;7.108;2023-02-14T15:23:16;20.63;;;10.87;;
5465;SDS011;2755;50.728;7.108;2023-02-14T15:25:45;18.93;;;10.00;;
5465;SDS011;2755;50.728;7.108;2023-02-14T15:28:32;15.23;;;9.00;;
5465;SDS011;2755;50.728;7.108;2023-02-14T15:31:01;19.07;;;10.80;;
5465;SDS011;2755;50.728;7.108;2023-02-14T15:33:28;18.90;;;10.33;;
5465;SDS011;2755;50.728;7.108;2023-02-14T15:35:55;17.90;;;10.00;;
5465;SDS011;2755;50.728;7.108;2023-02-14T15:38:25;16.50;;;9.97;;
5465;SDS011;2755;50.728;7.108;2023-02-14T15:40:51;17.77;;;10.10;;
5465;SDS011;2755;50.728;7.108;2023-02-14T15:45:55;20.40;;;10.47;;
5465;SDS011;2755;50.728;7.108;2023-02-14T15:48:38;20.40;;;10.77;;
5465;SDS011;2755;50.728;7.108;2023-02-14T15:51:05;17.50;;;9.67;;
5465;SDS011;2755;50.728;7.108;2023-02-14T15:53:40;17.83;;;10.23;;
5465;SDS011;2755;50.728;7.108;2023-02-14T15:56:17;24.63;;;11.20;;
5465;SDS011;2755;50.728;7.108;2023-02-14T15:58:49;14.30;;;8.27;;
5465;SDS011;2755;50.728;7.108;2023-02-14T16:01:22;20.10;;;11.17;;
5465;SDS011;2755;50.728;7.108;2023-02-14T16:03:52;20.53;;;10.60;;
5465;SDS011;2755;50.728;7.108;2023-02-14T16:06:29;19.13;;;11.00;;
5465;SDS011;2755;50.728;7.108;2023-02-14T16:08:57;20.30;;;10.00;;
5465;SDS011;2755;50.728;7.108;2023-02-14T16:11:27;18.57;;;11.27;;
5465;SDS011;2755;50.728;7.108;2023-02-14T16:13:54;19.10;;;11.70;;
5465;SDS011;2755;50.728;7.108;2023-02-14T16:16:20;24.50;;;12.00;;
5465;SDS011;2755;50.728;7.108;2023-02-14T16:18:47;22.60;;;11.33;;
5465;SDS011;2755;50.728;7.108;2023-02-14T16:26:36;20.80;;;11.00;;
5465;SDS011;2755;50.728;7.108;2023-02-14T16:29:24;19.87;;;11.03;;
5465;SDS011;2755;50.728;7.108;2023-02-14T16:31:51;22.17;;;11.40;;
5465;SDS011;2755;50.728;7.108;2023-02-14T16:34:19;18.97;;;10.80;;
5465;SDS011;2755;50.728;7.108;2023-02-14T16:36:45;21.03;;;10.67;;
5465;SDS011;2755;50.728;7.108;2023-02-14T16:39:15;20.50;;;11.50;;
5465;SDS011;2755;50.728;7.108;2023-02-14T16:41:43;22.03;;;12.00;;
5465;SDS011;2755;50.728;7.108;2023-02-14T16:44:11;20.00;;;10.90;;
5465;SDS011;2755;50.728;7.108;2023-02-14T16:46:38;23.20;;;11.53;;
5465;SDS011;2755;50.728;7.108;2023-02-14T16:49:04;22.23;;;11.60;;
5465;SDS011;2755;50.728;7.108;2023-02-14T16:51:30;20.43;;;12.60;;
5465;SDS011;2755;50.728;7.108;2023-02-14T16:53:58;18.13;;;11.77;;
5465;SDS011;2755;50.728;7.108;2023-02-14T16:59:07;24.47;;;13.17;;
5465;SDS011;2755;50.728;7.108;2023-02-14T17:01:33;20.13;;;11.43;;
5465;SDS011;2755;50.728;7.108;2023-02-14T17:03:58;24.37;;;11.00;;
5465;SDS011;2755;50.728;7.108;2023-02-14T17:06:25;21.03;;;12.47;;
5465;SDS011;2755;50.728;7.108;2023-02-14T17:08:52;20.30;;;12.03;;
5465;SDS011;2755;50.728;7.108;2023-02-14T17:11:19;17.63;;;10.87;;
5465;SDS011;2755;50.728;7.108;2023-02-14T17:13:46;22.67;;;13.43;;
5465;SDS011;2755;50.728;7.108;2023-02-14T17:16:13;22.20;;;12.20;;
5465;SDS011;2755;50.728;7.108;2023-02-14T17:18:40;21.37;;;11.80;;
5465;SDS011;2755;50.728;7.108;2023-02-14T17:21:10;18.87;;;11.33;;
5465;SDS011;2755;50.728;7.108;2023-02-14T17:23:36;25.00;;;12.97;;
5465;SDS011;2755;50.728;7.108;2023-02-14T17:26:01;19.70;;;12.60;;
5465;SDS011;2755;50.728;7.108;2023-02-14T17:28:27;22.37;;;13.17;;
5465;SDS011;2755;50.728;7.108;2023-02-14T17:30:53;23.30;;;12.67;;
5465;SDS011;2755;50.728;7.108;2023-02-14T17:33:19;25.50;;;13.37;;
5465;SDS011;2755;50.728;7.108;2023-02-14T17:35:45;22.60;;;13.67;;
5465;SDS011;2755;50.728;7.108;2023-02-14T17:38:11;29.47;;;13.20;;
5465;SDS011;2755;50.728;7.108;2023-02-14T17:40:36;27.37;;;14.27;;
5465;SDS011;2755;50.728;7.108;2023-02-14T17:43:02;29.40;;;14.33;;
5465;SDS011;2755;50.728;7.108;2023-02-14T17:45:28;29.60;;;14.80;;
5465;SDS011;2755;50.728;7.108;2023-02-14T17:47:54;25.20;;;13.70;;
5465;SDS011;2755;50.728;7.108;2023-02-14T17:50:19;24.50;;;14.00;;